Time;durP1;ratioP1;P1;durP2;ratioP2;P2;SDS_P1;SDS_P2;PMS_P1;PMS_P2;Temp;Humidity;BMP_temperature;BMP_pressure;BME280_temperature;BME280_humidity;BME280_pressure;Samples;Min_cycle;Max_cycle;Signal;HPM_P1;HPM_P2
2022/11/06 00:00:10;;;;;;;12.60;8.25;;;;;;;9.49;100.00;98136.41;1814920;78;20902;-60
2022/11/06 00:02:37;;;;;;;14.68;7.62;;;;;;;9.49;100.00;98138.31;1814509;79;21447;-60
2022/11/06 00:07:50;;;;;;;12.95;8.33;;;;;;;9.50;100.00;98136.68;1817513;78;20937;-59
2022/11/06 00:10:19;;;;;;;15.03;7.85;;;;;;;9.50;100.00;98137.21;1810933;78;20854;-58
2022/11/06 00:12:46;;;;;;;12.15;7.50;;;;;;;9.47;100.00;98137.23;1812018;78;20938;-59
2022/11/06 00:15:13;;;;;;;11.15;7.08;;;;;;;9.46;100.00;98141.00;1807880;78;20958;-59
2022/11/06 00:17:39;;;;;;;12.00;7.90;;;;;;;9.47;100.00;98139.91;1812859;78;21057;-59
2022/11/06 00:20:08;;;;;;;10.78;7.30;;;;;;;9.47;100.00;98135.09;1817514;78;21450;-59
2022/11/06 00:22:36;;;;;;;9.85;7.15;;;;;;;9.47;100.00;98139.91;1815138;78;21124;-60
2022/11/06 00:25:04;;;;;;;11.28;7.67;;;;;;;9.47;100.00;98133.75;1810078;78;21016;-61
2022/11/06 00:27:31;;;;;;;12.82;7.28;;;;;;;9.49;100.00;98135.63;1809892;78;20981;-58
2022/11/06 00:29:58;;;;;;;9.75;7.20;;;;;;;9.50;100.00;98130.53;1805295;78;21175;-59
2022/11/06 00:32:25;;;;;;;13.28;7.78;;;;;;;9.50;100.00;98128.66;1813929;78;21421;-59
2022/11/06 00:34:52;;;;;;;11.38;7.55;;;;;;;9.50;100.00;98132.67;1813870;78;20968;-59
2022/11/06 00:37:18;;;;;;;14.98;7.55;;;;;;;9.51;100.00;98134.81;1815110;78;21016;-60
2022/11/06 00:39:45;;;;;;;13.25;7.40;;;;;;;9.49;100.00;98129.72;1813535;78;20960;-59
2022/11/06 00:42:11;;;;;;;13.48;7.62;;;;;;;9.47;100.00;98115.84;1806552;79;21877;-58
2022/11/06 00:44:38;;;;;;;12.15;7.53;;;;;;;9.47;100.00;98126.53;1815510;78;20921;-58
2022/11/06 00:47:05;;;;;;;10.08;6.72;;;;;;;9.44;100.00;98132.43;1812562;79;20997;-58
2022/11/06 00:49:31;;;;;;;12.65;7.30;;;;;;;9.42;100.00;98127.91;1812679;78;21008;-59
2022/11/06 00:51:58;;;;;;;10.08;7.10;;;;;;;9.42;100.00;98127.13;1811113;78;21497;-59
2022/11/06 00:54:24;;;;;;;15.35;7.65;;;;;;;9.42;100.00;98126.56;1818046;78;21154;-58
2022/11/06 00:56:51;;;;;;;9.90;7.35;;;;;;;9.41;100.00;98124.99;1829192;77;21522;-59
2022/11/06 00:59:17;;;;;;;11.85;7.65;;;;;;;9.41;100.00;98124.19;1805496;77;20951;-58
2022/11/06 01:01:45;;;;;;;9.93;6.90;;;;;;;9.40;100.00;98120.70;1805588;78;21052;-57
2022/11/06 01:04:18;;;;;;;10.75;7.30;;;;;;;9.42;100.00;98126.56;1831385;78;20836;-57
2022/11/06 01:06:49;;;;;;;11.18;7.03;;;;;;;9.43;100.00;98117.48;1799040;77;21655;-57
2022/11/06 01:09:18;;;;;;;9.43;6.95;;;;;;;9.43;100.00;98120.16;1794631;77;20999;-61
2022/11/06 01:11:48;;;;;;;11.40;6.95;;;;;;;9.41;100.00;98124.99;1818134;77;20915;-60
2022/11/06 01:14:16;;;;;;;9.50;6.53;;;;;;;9.42;100.00;98118.55;1838351;77;21022;-59
2022/11/06 01:16:42;;;;;;;10.98;6.80;;;;;;;9.43;100.00;98117.48;1810601;77;21459;-60
2022/11/06 01:19:11;;;;;;;10.00;6.92;;;;;;;9.45;100.00;98115.86;1827769;77;21158;-60
2022/11/06 01:21:40;;;;;;;8.98;6.67;;;;;;;9.45;100.00;98122.01;1840902;77;20880;-59
2022/11/06 01:24:14;;;;;;;12.25;7.20;;;;;;;9.45;100.00;98120.67;1808856;78;20920;-61
2022/11/06 01:26:41;;;;;;;12.33;6.33;;;;;;;9.46;100.00;98123.63;1827646;77;20931;-59
2022/11/06 01:29:14;;;;;;;10.35;6.42;;;;;;;9.47;100.00;98123.86;1775919;77;21000;-58
2022/11/06 01:31:41;;;;;;;11.05;6.45;;;;;;;9.49;100.00;98119.03;1822739;77;21788;-60
2022/11/06 01:34:08;;;;;;;12.82;7.15;;;;;;;9.53;100.00;98122.77;1778329;78;20877;-60
2022/11/06 01:36:35;;;;;;;10.75;6.67;;;;;;;9.54;100.00;98120.86;1833183;77;20958;-59
2022/11/06 01:39:05;;;;;;;7.78;6.15;;;;;;;9.54;100.00;98121.66;1818073;77;21236;-60
2022/11/06 01:41:39;;;;;;;8.48;6.37;;;;;;;9.55;100.00;98120.60;1828629;77;21503;-59
2022/11/06 01:44:36;;;;;;;11.80;6.97;;;;;;;9.58;100.00;98119.24;1817286;78;20884;-59
2022/11/06 01:47:06;;;;;;;12.37;6.83;;;;;;;9.61;100.00;98122.14;1840197;77;20920;-57
2022/11/06 01:49:36;;;;;;;10.00;7.10;;;;;;;9.64;100.00;98121.59;1829197;77;21508;-59
2022/11/06 01:52:08;;;;;;;10.72;6.40;;;;;;;9.63;100.00;98126.66;1827874;77;20944;-59
2022/11/06 01:54:37;;;;;;;11.97;6.67;;;;;;;9.64;100.00;98122.12;1831757;77;20952;-59
2022/11/06 01:57:03;;;;;;;10.18;7.08;;;;;;;9.65;100.00;98125.06;1840408;77;21046;-58
2022/11/06 01:59:35;;;;;;;10.88;6.87;;;;;;;9.68;100.00;98130.40;1832018;77;20967;-59
2022/11/06 02:02:01;;;;;;;10.43;6.47;;;;;;;9.70;100.00;98129.57;1792788;78;20947;-59
2022/11/06 02:04:31;;;;;;;12.30;6.33;;;;;;;9.70;100.00;98119.67;1818137;77;20960;-59
2022/11/06 02:06:58;;;;;;;9.73;6.33;;;;;;;9.70;100.00;98127.70;1840962;77;21004;-59
2022/11/06 02:09:26;;;;;;;13.18;6.30;;;;;;;9.71;100.00;98119.11;1806458;77;21236;-58
2022/11/06 02:11:58;;;;;;;11.88;6.90;;;;;;;9.72;100.00;98123.40;1839097;77;21389;-59
2022/11/06 02:14:53;;;;;;;12.98;7.55;;;;;;;9.75;100.00;98122.28;1828986;77;20959;-58
2022/11/06 02:17:25;;;;;;;11.53;6.92;;;;;;;9.77;100.00;98124.69;1783801;78;21012;-60
2022/11/06 02:20:16;;;;;;;9.93;6.50;;;;;;;9.77;100.00;98129.52;1805861;77;20907;-60
2022/11/06 02:23:16;;;;;;;12.20;6.62;;;;;;;9.76;100.00;98134.59;1783043;77;21299;-60
2022/11/06 02:26:00;;;;;;;11.83;6.92;;;;;;;9.78;100.00;98139.64;1839750;77;20888;-60
2022/11/06 02:28:34;;;;;;;13.35;6.80;;;;;;;9.80;100.00;98133.50;1811969;77;20992;-58
2022/11/06 02:31:05;;;;;;;14.05;6.90;;;;;;;9.81;100.00;98132.41;1814736;77;21605;-60
2022/11/06 02:33:39;;;;;;;12.28;7.45;;;;;;;9.82;100.00;98130.78;1840313;77;20924;-59
2022/11/06 02:36:08;;;;;;;8.80;6.22;;;;;;;9.85;100.00;98128.89;1828688;77;21059;-58
2022/11/06 02:38:46;;;;;;;11.30;6.70;;;;;;;9.84;100.00;98117.14;1816721;77;20954;-58
2022/11/06 02:41:20;;;;;;;11.95;7.28;;;;;;;9.84;100.00;98107.78;1783023;78;21072;-60
2022/11/06 02:43:50;;;;;;;11.60;5.95;;;;;;;9.84;100.00;98094.40;1801996;77;21008;-60
2022/11/06 02:46:46;;;;;;;10.30;6.28;;;;;;;9.87;100.00;98116.59;1794676;78;20920;-60
2022/11/06 02:49:25;;;;;;;12.18;7.25;;;;;;;9.88;100.00;98128.86;1808996;77;20956;-59
2022/11/06 02:52:06;;;;;;;11.43;7.03;;;;;;;9.89;100.00;98131.81;1817539;78;20948;-58
2022/11/06 02:54:35;;;;;;;9.78;6.10;;;;;;;9.90;100.00;98128.84;1828638;77;20893;-58
2022/11/06 02:57:06;;;;;;;9.65;6.03;;;;;;;9.92;100.00;98143.27;1793353;78;20928;-59
2022/11/06 02:59:44;;;;;;;10.75;6.60;;;;;;;9.93;100.00;98147.55;1771302;78;20955;-59
2022/11/06 03:02:17;;;;;;;15.15;6.80;;;;;;;9.94;100.00;98152.61;1816458;78;21476;-59
2022/11/06 03:04:56;;;;;;;12.95;6.90;;;;;;;9.94;100.00;98151.83;1817566;77;20841;-59
2022/11/06 03:07:45;;;;;;;11.75;6.37;;;;;;;9.96;100.00;98152.34;1805063;77;20936;-60
2022/11/06 03:10:12;;;;;;;11.15;6.53;;;;;;;9.96;100.00;98164.38;1802452;78;21517;-59
2022/11/06 03:13:09;;;;;;;11.70;6.15;;;;;;;9.97;100.00;98160.61;1804683;78;21039;-59
2022/11/06 03:16:03;;;;;;;8.90;6.25;;;;;;;9.99;100.00;98159.79;1839873;77;21219;-57
2022/11/06 03:18:35;;;;;;;8.43;6.30;;;;;;;9.99;100.00;98159.79;1826774;77;20908;-57
2022/11/06 03:21:13;;;;;;;12.93;6.37;;;;;;;9.97;100.00;98165.97;1784819;77;20964;-58
2022/11/06 03:23:52;;;;;;;8.98;6.05;;;;;;;9.97;100.00;98170.78;1834432;77;20955;-59
2022/11/06 03:26:35;;;;;;;12.45;6.75;;;;;;;9.98;100.00;98168.91;1829085;77;20987;-58
2022/11/06 03:35:26;;;;;;;10.58;6.20;;;;;;;10.00;100.00;98177.45;1818406;77;21034;-61
2022/11/06 03:38:02;;;;;;;10.32;6.92;;;;;;;9.99;100.00;98181.19;1822645;77;20979;-59
2022/11/06 03:40:31;;;;;;;9.08;7.22;;;;;;;9.98;100.00;98173.73;1840708;77;21109;-61
2022/11/06 03:43:01;;;;;;;11.83;7.35;;;;;;;9.97;100.00;98178.81;1840084;78;21214;-61
2022/11/06 03:45:27;;;;;;;10.35;6.62;;;;;;;9.98;100.00;98180.42;1826621;77;21381;-61
2022/11/06 03:48:12;;;;;;;9.68;6.25;;;;;;;9.99;100.00;98182.53;1821167;77;20940;-61
2022/11/06 03:50:56;;;;;;;10.03;6.58;;;;;;;10.00;100.00;98175.58;1805356;77;21492;-62
2022/11/06 03:53:49;;;;;;;12.03;6.62;;;;;;;10.02;100.00;98179.30;1827073;77;20920;-61
2022/11/06 03:56:38;;;;;;;10.43;6.58;;;;;;;10.05;100.00;98174.73;1820930;77;21231;-62
2022/11/06 03:59:06;;;;;;;12.30;7.00;;;;;;;10.04;100.00;98175.27;1817583;77;21376;-61
2022/11/06 04:01:43;;;;;;;11.00;6.60;;;;;;;10.05;100.00;98184.91;1839026;77;20951;-60
2022/11/06 04:04:26;;;;;;;10.53;6.83;;;;;;;10.06;100.00;98177.12;1787263;78;21457;-60
2022/11/06 04:07:05;;;;;;;14.03;7.30;;;;;;;10.07;100.00;98185.42;1794369;78;20969;-62
2022/11/06 04:15:13;;;;;;;13.78;7.05;;;;;;;10.08;100.00;98195.59;1840580;77;21503;-58
2022/11/06 04:17:41;;;;;;;17.25;8.13;;;;;;;10.11;100.00;98192.33;1828736;77;21389;-59
2022/11/06 04:21:20;;;;;;;11.80;8.15;;;;;;;10.11;100.00;98190.98;1794708;77;20868;-58
2022/11/06 04:22:55;;;;;;;12.90;7.92;;;;;;;10.12;100.00;98192.63;1830240;77;22103;-58
2022/11/06 04:28:51;;;;;;;11.75;7.03;;;;;;;10.12;100.00;98192.09;1836910;77;20919;-58
2022/11/06 04:31:35;;;;;;;11.83;7.58;;;;;;;10.13;100.00;98197.69;1809078;77;20837;-59
2022/11/06 04:34:21;;;;;;;11.48;7.65;;;;;;;10.12;100.00;98192.09;1771429;78;20971;-60
2022/11/06 04:37:14;;;;;;;13.25;7.92;;;;;;;10.11;100.00;98195.84;1805700;78;21821;-58
2022/11/06 04:40:10;;;;;;;13.20;8.28;;;;;;;10.10;100.00;98204.13;1840252;77;21441;-57
2022/11/06 04:43:04;;;;;;;13.68;7.08;;;;;;;10.07;100.00;98204.16;1806853;77;21076;-59
2022/11/06 04:45:38;;;;;;;14.85;8.28;;;;;;;10.07;100.00;98213.52;1828556;77;20940;-58
2022/11/06 04:48:05;;;;;;;12.73;8.40;;;;;;;10.05;100.00;98208.19;1839388;77;21071;-60
2022/11/06 04:50:36;;;;;;;13.62;7.75;;;;;;;10.03;100.00;98207.11;1799379;78;21608;-60
2022/11/06 04:53:03;;;;;;;12.60;7.97;;;;;;;10.02;100.00;98198.84;1829463;77;20923;-59
2022/11/06 04:55:30;;;;;;;14.20;8.00;;;;;;;10.03;100.00;98203.66;1783447;77;21035;-58
2022/11/06 04:57:57;;;;;;;12.60;7.90;;;;;;;10.01;100.00;98202.58;1794279;77;21011;-59
2022/11/06 05:00:23;;;;;;;12.15;8.65;;;;;;;10.01;100.00;98205.82;1814372;78;20905;-59
2022/11/06 05:02:50;;;;;;;15.85;8.73;;;;;;;10.02;100.00;98210.08;1809219;79;21961;-58
2022/11/06 05:05:17;;;;;;;12.68;8.18;;;;;;;10.02;100.00;98213.56;1815276;78;20878;-60
2022/11/06 05:07:43;;;;;;;11.30;7.58;;;;;;;10.06;100.00;98212.44;1809781;78;20842;-60
2022/11/06 05:10:11;;;;;;;13.55;8.28;;;;;;;10.07;100.00;98215.39;1809887;79;21503;-60
2022/11/06 05:12:39;;;;;;;13.78;8.90;;;;;;;10.06;100.00;98217.26;1809940;78;20846;-60
2022/11/06 05:15:07;;;;;;;12.50;8.30;;;;;;;10.07;100.00;98223.42;1807242;79;21108;-59
2022/11/06 05:17:34;;;;;;;13.95;8.68;;;;;;;10.07;100.00;98223.42;1809162;78;20937;-60
2022/11/06 05:20:01;;;;;;;13.98;7.30;;;;;;;10.06;100.00;98227.16;1810345;78;20908;-59
2022/11/06 05:25:13;;;;;;;13.40;7.95;;;;;;;10.05;100.00;98226.39;1816946;78;21060;-58
2022/11/06 05:27:40;;;;;;;13.55;8.63;;;;;;;10.05;100.00;98230.94;1810408;78;21093;-61
2022/11/06 05:30:09;;;;;;;13.45;8.93;;;;;;;10.04;100.00;98236.02;1817142;77;21101;-60
2022/11/06 05:32:36;;;;;;;12.47;7.80;;;;;;;10.05;100.00;98244.31;1843598;77;20955;-58
2022/11/06 05:35:05;;;;;;;11.55;7.70;;;;;;;10.06;100.00;98241.34;1843542;77;20955;-59
2022/11/06 05:37:32;;;;;;;10.30;7.33;;;;;;;10.10;100.00;98244.27;1815816;78;21492;-59
2022/11/06 05:39:59;;;;;;;9.18;7.28;;;;;;;10.11;100.00;98251.20;1814878;78;21237;-60
2022/11/06 05:42:26;;;;;;;10.82;7.50;;;;;;;10.10;100.00;98250.97;1808925;78;21420;-59
2022/11/06 05:44:53;;;;;;;12.35;6.85;;;;;;;10.08;100.00;98255.23;1810870;78;20997;-58
2022/11/06 05:47:20;;;;;;;9.03;6.83;;;;;;;10.07;100.00;98259.55;1809448;79;21480;-57
2022/11/06 05:49:47;;;;;;;10.38;7.53;;;;;;;10.07;100.00;98260.88;1807812;78;20847;-60
2022/11/06 05:52:13;;;;;;;9.03;7.10;;;;;;;10.04;100.00;98256.08;1810908;78;22056;-59
2022/11/06 05:54:41;;;;;;;9.43;7.28;;;;;;;10.04;100.00;98263.58;1808729;78;20909;-59
2022/11/06 05:57:07;;;;;;;9.10;6.30;;;;;;;10.02;100.00;98278.31;1816777;78;20905;-60
2022/11/06 05:59:34;;;;;;;8.50;6.97;;;;;;;10.00;100.00;98271.11;1811599;78;21068;-59
2022/11/06 06:02:01;;;;;;;9.85;7.22;;;;;;;9.97;100.00;98274.33;1814909;78;20948;-60
2022/11/06 06:04:28;;;;;;;8.80;6.80;;;;;;;9.94;100.00;98278.93;1806317;78;21171;-58
2022/11/06 06:06:55;;;;;;;9.08;6.30;;;;;;;9.92;100.00;98283.73;1811489;77;20908;-60
2022/11/06 06:09:22;;;;;;;8.45;6.75;;;;;;;9.90;100.00;98281.88;1808824;78;21471;-60
2022/11/06 06:11:52;;;;;;;7.55;6.70;;;;;;;9.89;100.00;98280.30;1801657;78;20933;-59
2022/11/06 06:14:20;;;;;;;11.48;6.67;;;;;;;9.88;100.00;98281.36;1808159;78;20951;-60
2022/11/06 06:16:48;;;;;;;8.28;6.60;;;;;;;9.87;100.00;98291.83;1799733;78;20909;-59
2022/11/06 06:19:15;;;;;;;9.30;6.12;;;;;;;9.85;100.00;98297.96;1805948;78;20894;-59
2022/11/06 06:21:43;;;;;;;8.13;6.40;;;;;;;9.81;100.00;98291.58;1807869;78;20919;-60
2022/11/06 06:24:09;;;;;;;7.67;5.72;;;;;;;9.79;100.00;98289.72;1808590;78;21474;-61
2022/11/06 06:26:36;;;;;;;7.45;6.28;;;;;;;9.76;100.00;98300.44;1809200;78;20944;-60
2022/11/06 06:29:03;;;;;;;8.75;6.60;;;;;;;9.75;100.00;98296.71;1806567;78;21423;-60
2022/11/06 06:31:30;;;;;;;8.18;6.28;;;;;;;9.78;100.00;98306.84;1811128;78;20821;-58
2022/11/06 06:33:56;;;;;;;7.72;6.53;;;;;;;9.76;100.00;98303.64;1800897;78;20934;-58
2022/11/06 06:36:23;;;;;;;7.75;5.80;;;;;;;9.75;100.00;98304.17;1810262;78;20983;-58
2022/11/06 06:38:50;;;;;;;6.65;5.83;;;;;;;9.72;100.00;98303.41;1814593;79;20882;-59
2022/11/06 06:41:17;;;;;;;8.80;6.15;;;;;;;9.71;100.00;98307.68;1815646;78;21226;-59
2022/11/06 06:43:49;;;;;;;7.67;6.20;;;;;;;9.68;100.00;98313.05;1812506;78;20929;-59
2022/11/06 06:46:16;;;;;;;8.38;5.37;;;;;;;9.68;100.00;98316.28;1811074;78;20941;-60
2022/11/06 06:48:42;;;;;;;7.60;5.95;;;;;;;9.67;100.00;98311.99;1810120;78;20941;-60
2022/11/06 06:51:10;;;;;;;10.65;6.20;;;;;;;9.63;100.00;98312.53;1816412;78;20858;-60
2022/11/06 06:53:37;;;;;;;9.38;5.78;;;;;;;9.60;100.00;98313.11;1811339;79;21111;-61
2022/11/06 06:56:05;;;;;;;6.95;5.70;;;;;;;9.56;100.00;98322.73;1811129;78;20831;-59
2022/11/06 06:58:32;;;;;;;8.13;6.10;;;;;;;9.54;100.00;98316.06;1810957;78;21037;-60
2022/11/06 07:01:01;;;;;;;7.95;5.58;;;;;;;9.51;100.00;98314.77;1815233;78;20976;-58
2022/11/06 07:03:27;;;;;;;8.20;6.00;;;;;;;9.49;100.00;98319.56;1810682;78;21410;-60
2022/11/06 07:05:56;;;;;;;8.70;6.45;;;;;;;9.50;100.00;98323.85;1803052;78;21980;-59
2022/11/06 07:08:23;;;;;;;11.53;6.53;;;;;;;9.47;100.00;98319.05;1809073;78;21507;-58
2022/11/06 07:10:49;;;;;;;9.63;6.10;;;;;;;9.47;100.00;98327.06;1814453;78;20925;-59
2022/11/06 07:13:16;;;;;;;10.23;6.20;;;;;;;9.46;100.00;98325.48;1809393;78;21449;-59
2022/11/06 07:15:43;;;;;;;9.88;6.42;;;;;;;9.47;100.00;98332.41;1843140;77;20853;-60
2022/11/06 07:18:10;;;;;;;12.28;6.97;;;;;;;9.49;100.00;98329.48;1839169;77;21097;-60
2022/11/06 07:20:38;;;;;;;8.40;5.87;;;;;;;9.45;100.00;98326.55;1767911;80;20969;-60
2022/11/06 07:23:06;;;;;;;9.73;6.40;;;;;;;9.43;100.00;98328.70;1768231;80;20904;-61
2022/11/06 07:25:33;;;;;;;10.68;5.75;;;;;;;9.44;100.00;98333.52;1765815;80;20976;-60
2022/11/06 07:28:02;;;;;;;9.60;6.53;;;;;;;9.46;100.00;98334.84;1782432;80;20897;-60
2022/11/06 07:30:29;;;;;;;9.58;6.97;;;;;;;9.44;100.00;98338.30;1819495;77;21194;-61
2022/11/06 07:32:55;;;;;;;9.63;6.55;;;;;;;9.42;100.00;98328.42;1806249;77;21003;-60
2022/11/06 07:35:22;;;;;;;10.05;7.00;;;;;;;9.43;100.00;98333.23;1840569;77;21014;-60
2022/11/06 07:37:49;;;;;;;11.20;6.60;;;;;;;9.41;100.00;98340.73;1783364;77;20960;-60
2022/11/06 07:40:16;;;;;;;11.95;7.20;;;;;;;9.41;100.00;98336.73;1808060;77;21396;-60
2022/11/06 07:42:44;;;;;;;12.43;7.47;;;;;;;9.41;100.00;98334.86;1840901;77;21148;-61
2022/11/06 07:45:13;;;;;;;14.93;7.45;;;;;;;9.44;100.00;98338.30;1776956;77;21551;-62
2022/11/06 07:47:39;;;;;;;8.85;6.40;;;;;;;9.45;100.00;98341.78;1790169;77;20872;-60
2022/11/06 07:50:06;;;;;;;15.18;8.05;;;;;;;9.43;100.00;98342.59;1817222;78;21526;-61
2022/11/06 07:52:34;;;;;;;95.40;52.88;;;;;;;9.38;100.00;98346.09;1841053;77;20978;-60
2022/11/06 07:55:00;;;;;;;19.20;12.07;;;;;;;9.34;100.00;98345.05;1818550;77;21234;-61
2022/11/06 07:57:27;;;;;;;15.75;9.43;;;;;;;9.33;100.00;98349.31;1831809;77;20880;-60
2022/11/06 07:59:54;;;;;;;12.20;8.10;;;;;;;9.32;100.00;98354.41;1826505;77;20963;-59
2022/11/06 08:02:21;;;;;;;13.50;7.50;;;;;;;9.30;100.00;98347.20;1830813;78;20964;-59
2022/11/06 08:04:47;;;;;;;9.15;7.12;;;;;;;9.26;100.00;98354.95;1783378;77;20964;-58
2022/11/06 08:07:15;;;;;;;15.63;8.60;;;;;;;9.23;100.00;98351.48;1783450;77;21099;-59
2022/11/06 08:09:41;;;;;;;10.65;8.08;;;;;;;9.20;100.00;98349.91;1841331;77;21392;-58
2022/11/06 08:12:08;;;;;;;13.15;8.28;;;;;;;9.16;100.00;98349.63;1816255;77;20915;-60
2022/11/06 08:14:36;;;;;;;;;;;;;;;9.13;100.00;98358.22;1781399;78;38482;-58
2022/11/06 08:17:04;;;;;;;15.03;8.38;;;;;;;9.13;100.00;98358.22;1783493;77;20110;-61
2022/11/06 08:19:32;;;;;;;12.55;8.38;;;;;;;9.09;100.00;98358.47;1811928;77;21467;-59
2022/11/06 08:21:59;;;;;;;11.45;7.83;;;;;;;9.10;100.00;98366.77;1780139;77;20873;-58
2022/11/06 08:24:26;;;;;;;11.83;7.78;;;;;;;9.08;100.00;98368.11;1790841;77;20884;-58
2022/11/06 08:26:53;;;;;;;11.10;7.70;;;;;;;9.09;100.00;98375.06;1809326;77;21472;-59
2022/11/06 08:29:19;;;;;;;9.80;7.55;;;;;;;9.09;100.00;98372.39;1794854;77;21034;-60
2022/11/06 08:31:46;;;;;;;12.58;7.90;;;;;;;9.07;100.00;98369.97;1794446;78;21997;-59
2022/11/06 08:34:13;;;;;;;11.75;8.18;;;;;;;9.07;100.00;98370.53;1828904;77;20988;-59
2022/11/06 08:36:44;;;;;;;12.43;8.00;;;;;;;9.05;100.00;98371.31;1829549;77;21562;-60
2022/11/06 08:39:12;;;;;;;10.28;7.10;;;;;;;9.00;100.00;98372.13;1793049;77;20850;-58
2022/11/06 08:41:39;;;;;;;10.30;7.08;;;;;;;8.98;100.00;98370.27;1818281;77;20872;-60
2022/11/06 08:44:06;;;;;;;9.35;7.42;;;;;;;8.97;100.00;98378.03;1818049;77;21870;-60
2022/11/06 08:46:32;;;;;;;12.05;7.72;;;;;;;9.01;100.00;98380.95;1809114;77;21011;-61
2022/11/06 08:48:59;;;;;;;11.95;8.13;;;;;;;9.00;100.00;98380.14;1835689;77;21412;-60
2022/11/06 08:51:26;;;;;;;12.00;7.33;;;;;;;8.95;100.00;98381.48;1774374;78;20936;-60
2022/11/06 08:53:52;;;;;;;10.18;7.10;;;;;;;8.94;100.00;98386.58;1804049;77;21039;-60
2022/11/06 08:56:19;;;;;;;12.23;8.23;;;;;;;8.95;100.00;98383.63;1806777;77;21088;-60
2022/11/06 08:58:45;;;;;;;11.55;8.18;;;;;;;8.98;100.00;98395.64;1828904;77;21090;-60
2022/11/06 09:01:12;;;;;;;11.83;7.35;;;;;;;9.02;100.00;98394.02;1794724;77;20945;-59
2022/11/06 09:03:38;;;;;;;12.37;8.43;;;;;;;9.03;100.00;98392.97;1829886;77;20967;-59
2022/11/06 09:06:07;;;;;;;10.63;7.97;;;;;;;9.03;100.00;98389.48;1825782;77;20980;-60
2022/11/06 09:08:34;;;;;;;13.25;8.83;;;;;;;9.03;100.00;98391.63;1820682;78;21223;-61
2022/11/06 09:11:06;;;;;;;11.25;8.13;;;;;;;9.03;100.00;98399.65;1840472;77;20936;-59
2022/11/06 09:13:34;;;;;;;16.02;8.70;;;;;;;9.06;100.00;98396.97;1805960;77;20968;-58
2022/11/06 09:16:02;;;;;;;13.25;8.00;;;;;;;9.06;100.00;98396.44;1796371;77;21015;-61
2022/11/06 09:18:31;;;;;;;12.40;8.13;;;;;;;9.07;100.00;98398.59;1814763;77;20973;-59
2022/11/06 09:20:57;;;;;;;11.15;8.50;;;;;;;9.09;100.00;98397.22;1806103;77;21212;-59
2022/11/06 09:23:24;;;;;;;14.20;9.93;;;;;;;9.12;100.00;98399.36;1793170;77;20976;-59
2022/11/06 09:25:51;;;;;;;18.17;11.63;;;;;;;9.14;100.00;98399.88;1810025;77;20907;-60
2022/11/06 09:28:19;;;;;;;12.80;9.70;;;;;;;9.12;100.00;98403.36;1790837;77;20881;-59
2022/11/06 09:30:46;;;;;;;11.68;9.20;;;;;;;9.13;100.00;98406.31;1793430;77;20924;-58
2022/11/06 09:33:13;;;;;;;10.80;8.93;;;;;;;9.12;100.00;98395.35;1813235;77;21141;-59
2022/11/06 09:35:40;;;;;;;13.53;8.88;;;;;;;9.13;100.00;98400.16;1829493;77;20903;-60
2022/11/06 09:38:10;;;;;;;15.28;8.48;;;;;;;9.11;100.00;98401.78;1807972;77;21404;-58
2022/11/06 09:40:52;;;;;;;11.78;8.20;;;;;;;9.11;100.00;98393.77;1819100;77;20956;-60
2022/11/06 09:44:01;;;;;;;15.68;9.33;;;;;;;9.14;100.00;98403.89;1839301;77;21455;-59
2022/11/06 09:46:33;;;;;;;12.07;8.38;;;;;;;9.18;100.00;98403.64;1801141;77;21104;-58
2022/11/06 09:49:25;;;;;;;13.15;9.08;;;;;;;9.19;100.00;98407.09;1815203;77;20915;-60
2022/11/06 09:52:18;;;;;;;18.80;12.47;;;;;;;9.21;100.00;98403.08;1817493;77;20951;-60
2022/11/06 09:54:49;;;;;;;12.25;8.08;;;;;;;9.21;100.00;98405.75;1840279;77;21616;-59
2022/11/06 09:57:28;;;;;;;12.18;8.35;;;;;;;9.20;100.00;98406.84;1783125;77;20976;-59
2022/11/06 09:59:55;;;;;;;12.50;8.65;;;;;;;9.19;100.00;98407.89;1794753;77;21212;-60
2022/11/06 10:02:33;;;;;;;13.38;8.00;;;;;;;9.20;100.00;98414.86;1827831;77;20873;-59
2022/11/06 10:05:11;;;;;;;8.93;5.85;;;;;;;9.21;100.00;98409.75;1786485;77;20844;-61
2022/11/06 10:07:40;;;;;;;11.88;6.80;;;;;;;9.23;100.00;98406.27;1784168;77;20968;-61
2022/11/06 10:10:17;;;;;;;10.63;6.40;;;;;;;9.26;100.00;98414.28;1793133;77;20912;-59
2022/11/06 10:13:22;;;;;;;8.23;6.58;;;;;;;9.28;100.00;98410.27;1822835;77;21239;-59
2022/11/06 10:16:11;;;;;;;7.92;5.55;;;;;;;9.31;100.00;98415.61;1818104;77;20956;-59
2022/11/06 10:19:06;;;;;;;10.60;6.40;;;;;;;9.32;100.00;98411.35;1783392;77;20932;-62
2022/11/06 10:21:45;;;;;;;9.40;6.70;;;;;;;9.25;100.00;98409.50;1805154;77;21464;-60
2022/11/06 10:24:20;;;;;;;13.00;7.60;;;;;;;9.23;100.00;98402.27;1815961;77;21091;-60
2022/11/06 10:26:55;;;;;;;10.80;6.62;;;;;;;9.19;100.00;98398.54;1831560;77;21115;-61
2022/11/06 10:29:37;;;;;;;8.53;6.30;;;;;;;9.17;100.00;98399.88;1840271;77;21023;-59
2022/11/06 10:32:33;;;;;;;10.38;6.40;;;;;;;9.14;100.00;98391.87;1801107;77;20841;-59
2022/11/06 10:35:30;;;;;;;10.93;6.60;;;;;;;9.14;100.00;98390.53;1837873;77;21412;-60
2022/11/06 10:38:17;;;;;;;7.95;5.50;;;;;;;9.14;100.00;98387.86;1839017;77;20940;-60
2022/11/06 10:40:47;;;;;;;8.90;5.70;;;;;;;9.16;100.00;98380.36;1771266;78;21226;-60
2022/11/06 10:43:34;;;;;;;6.15;5.10;;;;;;;9.20;100.00;98377.44;1797349;77;20960;-60
2022/11/06 10:46:26;;;;;;;7.47;4.95;;;;;;;9.21;100.00;98380.92;1840423;77;20986;-60
2022/11/06 10:48:57;;;;;;;8.15;5.70;;;;;;;9.21;100.00;98376.34;1814866;78;21416;-60
2022/11/06 10:52:00;;;;;;;7.95;5.75;;;;;;;9.21;100.00;98373.67;1778075;78;20921;-60
2022/11/06 10:54:48;;;;;;;13.40;8.13;;;;;;;9.18;100.00;98374.24;1805490;78;21980;-59
2022/11/06 10:57:42;;;;;;;11.30;8.10;;;;;;;9.19;100.00;98374.48;1828851;78;21041;-58
2022/11/06 11:00:14;;;;;;;10.38;7.50;;;;;;;9.20;100.00;98377.44;1789049;78;20947;-58
2022/11/06 11:02:59;;;;;;;9.00;6.45;;;;;;;9.20;100.00;98378.77;1795955;78;21007;-59
2022/11/06 11:05:28;;;;;;;8.60;6.50;;;;;;;9.20;100.00;98369.42;1817127;78;20972;-60
2022/11/06 11:07:55;;;;;;;7.72;5.80;;;;;;;9.23;100.00;98376.09;1834231;78;21215;-61
2022/11/06 11:10:32;;;;;;;8.55;6.33;;;;;;;9.24;100.00;98369.13;1810385;77;20893;-60
2022/11/06 11:13:01;;;;;;;9.13;6.20;;;;;;;9.27;100.00;98373.94;1838748;77;20865;-59
2022/11/06 11:15:32;;;;;;;7.78;6.08;;;;;;;9.26;100.00;98365.64;1820034;78;20864;-59
2022/11/06 11:18:15;;;;;;;8.13;6.40;;;;;;;9.27;100.00;98365.92;1775524;77;20845;-60
2022/11/06 11:20:47;;;;;;;8.83;6.30;;;;;;;9.30;100.00;98369.36;1805614;78;21059;-60
2022/11/06 11:23:18;;;;;;;10.50;6.87;;;;;;;9.29;100.00;98359.77;1783120;78;20971;-60
2022/11/06 11:25:54;;;;;;;10.08;7.67;;;;;;;9.31;100.00;98362.16;1804469;78;21033;-59
2022/11/06 11:28:35;;;;;;;13.65;7.37;;;;;;;9.34;100.00;98354.41;1791707;78;20953;-58
2022/11/06 11:31:12;;;;;;;10.32;7.80;;;;;;;9.41;100.00;98358.92;1839153;78;21011;-60
2022/11/06 11:33:40;;;;;;;11.28;8.65;;;;;;;9.47;100.00;98360.48;1777080;77;21901;-60
2022/11/06 11:36:09;;;;;;;13.03;8.85;;;;;;;9.54;100.00;98360.98;1788946;77;20911;-59
2022/11/06 11:38:38;;;;;;;10.25;7.72;;;;;;;9.57;100.00;98361.79;1821182;77;20928;-60
2022/11/06 11:41:20;;;;;;;11.53;7.85;;;;;;;9.58;100.00;98361.26;1816293;77;20956;-59
2022/11/06 11:44:14;;;;;;;10.48;6.35;;;;;;;9.56;100.00;98362.08;1825824;78;20985;-61
2022/11/06 11:46:54;;;;;;;9.53;6.12;;;;;;;9.55;100.00;98357.78;1825922;78;21624;-59
2022/11/06 11:49:30;;;;;;;9.00;6.50;;;;;;;9.53;100.00;98355.40;1831557;76;20941;-61
2022/11/06 11:52:02;;;;;;;9.65;6.05;;;;;;;9.50;100.00;98355.94;1829037;77;21532;-60
2022/11/06 11:54:32;;;;;;;11.88;8.70;;;;;;;9.50;100.00;98357.27;1828872;78;21385;-60
2022/11/06 11:57:07;;;;;;;12.88;8.50;;;;;;;9.49;100.00;98358.34;1830452;78;20882;-60
2022/11/06 11:59:47;;;;;;;16.60;10.23;;;;;;;9.50;100.00;98361.28;1791491;79;20932;-61
2022/11/06 12:02:31;;;;;;;16.73;11.83;;;;;;;9.52;100.00;98365.82;1793687;79;20886;-59
2022/11/06 12:05:01;;;;;;;19.75;14.93;;;;;;;9.58;100.00;98362.59;1787483;78;21508;-60
2022/11/06 12:07:31;;;;;;;16.52;12.33;;;;;;;9.60;100.00;98355.90;1790628;79;21583;-62
2022/11/06 12:10:00;;;;;;;14.85;11.53;;;;;;;9.63;100.00;98350.54;1800116;78;20964;-60